sensor_id;sensor_type;location;lat;lon;timestamp;P1;durP1;ratioP1;P2;durP2;ratioP2
57752;SDS011;43583;53.132;6.574;2024-03-08T00:00:42;27.58;;;13.70;;
57752;SDS011;43583;53.132;6.574;2024-03-08T00:03:08;29.40;;;14.82;;
57752;SDS011;43583;53.132;6.574;2024-03-08T00:05:35;29.67;;;13.07;;
57752;SDS011;43583;53.132;6.574;2024-03-08T00:08:01;25.05;;;12.77;;
57752;SDS011;43583;53.132;6.574;2024-03-08T00:10:27;30.33;;;14.18;;
57752;SDS011;43583;53.132;6.574;2024-03-08T00:12:54;27.88;;;14.50;;
57752;SDS011;43583;53.132;6.574;2024-03-08T00:15:19;33.75;;;15.68;;
57752;SDS011;43583;53.132;6.574;2024-03-08T00:17:48;37.90;;;14.20;;
57752;SDS011;43583;53.132;6.574;2024-03-08T00:20:13;34.40;;;15.00;;
57752;SDS011;43583;53.132;6.574;2024-03-08T00:22:40;30.23;;;13.98;;
57752;SDS011;43583;53.132;6.574;2024-03-08T00:25:06;29.52;;;13.35;;
57752;SDS011;43583;53.132;6.574;2024-03-08T00:27:35;31.83;;;13.88;;
57752;SDS011;43583;53.132;6.574;2024-03-08T00:30:02;29.67;;;15.52;;
57752;SDS011;43583;53.132;6.574;2024-03-08T00:32:28;33.55;;;14.00;;
57752;SDS011;43583;53.132;6.574;2024-03-08T00:34:54;32.95;;;15.43;;
57752;SDS011;43583;53.132;6.574;2024-03-08T00:37:20;32.30;;;15.05;;
57752;SDS011;43583;53.132;6.574;2024-03-08T00:39:49;32.05;;;16.02;;
57752;SDS011;43583;53.132;6.574;2024-03-08T00:42:16;35.97;;;16.92;;
57752;SDS011;43583;53.132;6.574;2024-03-08T00:44:45;38.38;;;17.05;;
57752;SDS011;43583;53.132;6.574;2024-03-08T00:47:11;34.58;;;17.73;;
57752;SDS011;43583;53.132;6.574;2024-03-08T00:49:36;37.92;;;16.70;;
57752;SDS011;43583;53.132;6.574;2024-03-08T00:52:03;34.40;;;17.85;;
57752;SDS011;43583;53.132;6.574;2024-03-08T00:54:33;31.55;;;15.80;;
57752;SDS011;43583;53.132;6.574;2024-03-08T00:56:59;34.65;;;16.25;;
57752;SDS011;43583;53.132;6.574;2024-03-08T00:59:28;39.38;;;18.00;;
57752;SDS011;43583;53.132;6.574;2024-03-08T01:01:57;33.38;;;15.00;;
57752;SDS011;43583;53.132;6.574;2024-03-08T01:04:24;35.53;;;15.82;;
57752;SDS011;43583;53.132;6.574;2024-03-08T01:06:53;38.97;;;17.30;;
57752;SDS011;43583;53.132;6.574;2024-03-08T01:09:18;36.80;;;16.85;;
57752;SDS011;43583;53.132;6.574;2024-03-08T01:11:45;34.03;;;16.67;;
57752;SDS011;43583;53.132;6.574;2024-03-08T01:14:11;38.20;;;15.82;;
57752;SDS011;43583;53.132;6.574;2024-03-08T01:16:36;34.90;;;16.23;;
57752;SDS011;43583;53.132;6.574;2024-03-08T01:19:02;31.23;;;16.52;;
57752;SDS011;43583;53.132;6.574;2024-03-08T01:21:28;38.42;;;17.77;;
57752;SDS011;43583;53.132;6.574;2024-03-08T01:23:54;36.20;;;15.95;;
57752;SDS011;43583;53.132;6.574;2024-03-08T01:26:20;35.78;;;16.52;;
57752;SDS011;43583;53.132;6.574;2024-03-08T01:28:45;38.15;;;15.82;;
57752;SDS011;43583;53.132;6.574;2024-03-08T01:31:11;37.22;;;16.60;;
57752;SDS011;43583;53.132;6.574;2024-03-08T01:33:37;39.17;;;16.60;;
57752;SDS011;43583;53.132;6.574;2024-03-08T01:36:02;36.63;;;17.83;;
57752;SDS011;43583;53.132;6.574;2024-03-08T01:38:28;35.90;;;17.55;;
57752;SDS011;43583;53.132;6.574;2024-03-08T01:40:54;43.60;;;18.90;;
57752;SDS011;43583;53.132;6.574;2024-03-08T01:43:26;40.75;;;17.95;;
57752;SDS011;43583;53.132;6.574;2024-03-08T01:45:58;37.10;;;16.10;;
57752;SDS011;43583;53.132;6.574;2024-03-08T01:48:25;36.83;;;16.98;;
57752;SDS011;43583;53.132;6.574;2024-03-08T01:50:51;38.05;;;16.58;;
57752;SDS011;43583;53.132;6.574;2024-03-08T01:53:19;39.40;;;16.95;;
57752;SDS011;43583;53.132;6.574;2024-03-08T01:55:46;38.15;;;16.45;;
57752;SDS011;43583;53.132;6.574;2024-03-08T01:58:13;33.85;;;17.70;;
57752;SDS011;43583;53.132;6.574;2024-03-08T02:00:46;31.88;;;17.05;;
57752;SDS011;43583;53.132;6.574;2024-03-08T02:03:17;33.80;;;15.77;;
57752;SDS011;43583;53.132;6.574;2024-03-08T02:05:43;33.38;;;16.52;;
57752;SDS011;43583;53.132;6.574;2024-03-08T02:08:09;38.35;;;17.60;;
57752;SDS011;43583;53.132;6.574;2024-03-08T02:10:40;33.63;;;16.67;;
57752;SDS011;43583;53.132;6.574;2024-03-08T02:13:06;35.20;;;15.57;;
57752;SDS011;43583;53.132;6.574;2024-03-08T02:18:28;37.20;;;16.08;;
57752;SDS011;43583;53.132;6.574;2024-03-08T02:20:58;36.65;;;15.95;;
57752;SDS011;43583;53.132;6.574;2024-03-08T02:23:24;35.15;;;16.25;;
57752;SDS011;43583;53.132;6.574;2024-03-08T02:25:51;36.38;;;17.80;;
57752;SDS011;43583;53.132;6.574;2024-03-08T02:28:18;35.10;;;16.63;;
57752;SDS011;43583;53.132;6.574;2024-03-08T02:30:45;34.40;;;14.73;;
57752;SDS011;43583;53.132;6.574;2024-03-08T02:33:16;32.28;;;15.55;;
57752;SDS011;43583;53.132;6.574;2024-03-08T02:35:46;36.17;;;16.38;;
57752;SDS011;43583;53.132;6.574;2024-03-08T02:38:14;30.15;;;15.63;;
57752;SDS011;43583;53.132;6.574;2024-03-08T02:40:53;34.38;;;17.23;;
57752;SDS011;43583;53.132;6.574;2024-03-08T02:43:19;37.95;;;16.90;;
57752;SDS011;43583;53.132;6.574;2024-03-08T02:45:49;35.75;;;16.45;;
57752;SDS011;43583;53.132;6.574;2024-03-08T02:48:15;37.08;;;18.05;;
57752;SDS011;43583;53.132;6.574;2024-03-08T02:50:43;30.65;;;15.45;;
57752;SDS011;43583;53.132;6.574;2024-03-08T02:53:09;40.40;;;17.17;;
57752;SDS011;43583;53.132;6.574;2024-03-08T02:55:36;32.63;;;15.27;;
57752;SDS011;43583;53.132;6.574;2024-03-08T02:58:06;36.45;;;16.15;;
57752;SDS011;43583;53.132;6.574;2024-03-08T03:00:35;34.78;;;17.17;;
57752;SDS011;43583;53.132;6.574;2024-03-08T03:03:02;28.17;;;14.55;;
57752;SDS011;43583;53.132;6.574;2024-03-08T03:05:28;31.00;;;14.95;;
57752;SDS011;43583;53.132;6.574;2024-03-08T03:07:57;31.77;;;15.90;;
57752;SDS011;43583;53.132;6.574;2024-03-08T03:10:23;37.58;;;17.40;;
57752;SDS011;43583;53.132;6.574;2024-03-08T03:12:49;31.42;;;15.98;;
57752;SDS011;43583;53.132;6.574;2024-03-08T03:15:15;30.48;;;14.75;;
57752;SDS011;43583;53.132;6.574;2024-03-08T03:17:47;30.17;;;14.80;;
57752;SDS011;43583;53.132;6.574;2024-03-08T03:20:13;31.08;;;14.40;;
57752;SDS011;43583;53.132;6.574;2024-03-08T03:22:40;28.88;;;15.43;;
57752;SDS011;43583;53.132;6.574;2024-03-08T03:25:06;34.72;;;16.88;;
57752;SDS011;43583;53.132;6.574;2024-03-08T03:27:36;37.25;;;15.50;;
57752;SDS011;43583;53.132;6.574;2024-03-08T03:30:02;40.15;;;15.75;;
57752;SDS011;43583;53.132;6.574;2024-03-08T03:32:46;30.45;;;14.50;;
57752;SDS011;43583;53.132;6.574;2024-03-08T03:35:19;34.08;;;15.32;;
57752;SDS011;43583;53.132;6.574;2024-03-08T03:37:45;33.70;;;14.55;;
57752;SDS011;43583;53.132;6.574;2024-03-08T03:40:27;30.70;;;14.23;;
57752;SDS011;43583;53.132;6.574;2024-03-08T03:42:56;30.05;;;15.73;;
57752;SDS011;43583;53.132;6.574;2024-03-08T03:45:22;32.00;;;14.73;;
57752;SDS011;43583;53.132;6.574;2024-03-08T03:47:51;33.47;;;14.43;;
57752;SDS011;43583;53.132;6.574;2024-03-08T03:50:20;30.45;;;14.57;;
57752;SDS011;43583;53.132;6.574;2024-03-08T03:52:47;31.58;;;14.25;;
57752;SDS011;43583;53.132;6.574;2024-03-08T03:55:13;27.08;;;13.25;;
57752;SDS011;43583;53.132;6.574;2024-03-08T03:57:39;31.75;;;15.80;;
57752;SDS011;43583;53.132;6.574;2024-03-08T04:00:06;30.33;;;12.95;;
57752;SDS011;43583;53.132;6.574;2024-03-08T04:02:35;33.60;;;15.00;;
57752;SDS011;43583;53.132;6.574;2024-03-08T04:05:05;34.10;;;14.45;;
57752;SDS011;43583;53.132;6.574;2024-03-08T04:07:31;30.00;;;13.60;;
57752;SDS011;43583;53.132;6.574;2024-03-08T04:09:57;27.30;;;14.05;;
57752;SDS011;43583;53.132;6.574;2024-03-08T04:12:23;29.40;;;15.70;;
57752;SDS011;43583;53.132;6.574;2024-03-08T04:14:49;32.92;;;13.00;;
57752;SDS011;43583;53.132;6.574;2024-03-08T04:17:14;29.55;;;15.23;;
57752;SDS011;43583;53.132;6.574;2024-03-08T04:19:40;27.02;;;13.30;;
57752;SDS011;43583;53.132;6.574;2024-03-08T04:22:06;27.83;;;14.45;;
57752;SDS011;43583;53.132;6.574;2024-03-08T04:24:32;28.70;;;13.90;;
57752;SDS011;43583;53.132;6.574;2024-03-08T04:26:58;26.80;;;13.98;;
57752;SDS011;43583;53.132;6.574;2024-03-08T04:29:24;33.22;;;14.50;;
57752;SDS011;43583;53.132;6.574;2024-03-08T04:31:49;32.38;;;14.05;;
57752;SDS011;43583;53.132;6.574;2024-03-08T04:34:19;31.65;;;15.32;;
57752;SDS011;43583;53.132;6.574;2024-03-08T04:36:50;28.23;;;13.07;;
57752;SDS011;43583;53.132;6.574;2024-03-08T04:39:16;30.33;;;13.32;;
57752;SDS011;43583;53.132;6.574;2024-03-08T04:41:43;26.35;;;13.68;;
57752;SDS011;43583;53.132;6.574;2024-03-08T04:44:10;26.88;;;13.80;;
57752;SDS011;43583;53.132;6.574;2024-03-08T04:46:37;34.63;;;14.35;;
57752;SDS011;43583;53.132;6.574;2024-03-08T04:49:03;27.33;;;13.35;;
57752;SDS011;43583;53.132;6.574;2024-03-08T04:51:29;27.63;;;12.93;;
57752;SDS011;43583;53.132;6.574;2024-03-08T04:53:55;23.77;;;12.68;;
57752;SDS011;43583;53.132;6.574;2024-03-08T04:56:22;30.15;;;14.32;;
57752;SDS011;43583;53.132;6.574;2024-03-08T04:58:47;33.03;;;14.40;;
57752;SDS011;43583;53.132;6.574;2024-03-08T05:01:13;29.27;;;13.63;;
57752;SDS011;43583;53.132;6.574;2024-03-08T05:03:39;26.95;;;13.63;;
57752;SDS011;43583;53.132;6.574;2024-03-08T05:06:05;30.00;;;13.43;;
57752;SDS011;43583;53.132;6.574;2024-03-08T05:08:30;26.05;;;13.70;;
57752;SDS011;43583;53.132;6.574;2024-03-08T05:10:56;30.05;;;14.02;;
57752;SDS011;43583;53.132;6.574;2024-03-08T05:13:22;33.13;;;15.30;;
57752;SDS011;43583;53.132;6.574;2024-03-08T05:15:48;25.65;;;12.65;;
57752;SDS011;43583;53.132;6.574;2024-03-08T05:18:15;32.13;;;13.88;;
57752;SDS011;43583;53.132;6.574;2024-03-08T05:20:41;29.23;;;14.95;;
57752;SDS011;43583;53.132;6.574;2024-03-08T05:23:07;33.20;;;15.30;;
57752;SDS011;43583;53.132;6.574;2024-03-08T05:25:33;28.30;;;13.75;;
57752;SDS011;43583;53.132;6.574;2024-03-08T05:27:59;26.90;;;13.13;;
57752;SDS011;43583;53.132;6.574;2024-03-08T05:30:24;30.70;;;14.52;;
57752;SDS011;43583;53.132;6.574;2024-03-08T05:32:50;31.63;;;13.27;;
57752;SDS011;43583;53.132;6.574;2024-03-08T05:35:16;33.53;;;14.38;;
57752;SDS011;43583;53.132;6.574;2024-03-08T05:37:42;29.30;;;12.98;;
57752;SDS011;43583;53.132;6.574;2024-03-08T05:40:08;31.85;;;14.75;;
57752;SDS011;43583;53.132;6.574;2024-03-08T05:42:37;28.33;;;12.85;;
57752;SDS011;43583;53.132;6.574;2024-03-08T05:45:03;28.77;;;13.60;;
57752;SDS011;43583;53.132;6.574;2024-03-08T05:47:31;29.58;;;13.02;;
57752;SDS011;43583;53.132;6.574;2024-03-08T05:49:58;30.77;;;14.32;;
57752;SDS011;43583;53.132;6.574;2024-03-08T05:52:24;31.35;;;14.90;;
57752;SDS011;43583;53.132;6.574;2024-03-08T05:54:51;25.90;;;12.63;;
57752;SDS011;43583;53.132;6.574;2024-03-08T05:57:17;32.17;;;13.68;;
57752;SDS011;43583;53.132;6.574;2024-03-08T05:59:43;31.75;;;14.15;;
57752;SDS011;43583;53.132;6.574;2024-03-08T06:02:08;29.10;;;13.20;;
57752;SDS011;43583;53.132;6.574;2024-03-08T06:04:34;36.50;;;15.50;;
57752;SDS011;43583;53.132;6.574;2024-03-08T06:07:00;29.98;;;13.18;;
57752;SDS011;43583;53.132;6.574;2024-03-08T06:09:26;27.58;;;14.60;;
57752;SDS011;43583;53.132;6.574;2024-03-08T06:11:52;32.47;;;13.68;;
57752;SDS011;43583;53.132;6.574;2024-03-08T06:14:18;25.50;;;12.40;;
57752;SDS011;43583;53.132;6.574;2024-03-08T06:16:45;26.48;;;13.43;;
57752;SDS011;43583;53.132;6.574;2024-03-08T06:19:11;31.45;;;13.68;;
57752;SDS011;43583;53.132;6.574;2024-03-08T06:21:37;28.88;;;13.82;;
57752;SDS011;43583;53.132;6.574;2024-03-08T06:24:03;31.70;;;14.48;;
57752;SDS011;43583;53.132;6.574;2024-03-08T06:26:29;29.10;;;13.80;;
57752;SDS011;43583;53.132;6.574;2024-03-08T06:28:55;26.52;;;13.73;;
57752;SDS011;43583;53.132;6.574;2024-03-08T06:31:21;31.95;;;15.70;;
57752;SDS011;43583;53.132;6.574;2024-03-08T06:33:47;29.92;;;13.00;;
57752;SDS011;43583;53.132;6.574;2024-03-08T06:36:16;26.17;;;13.57;;
57752;SDS011;43583;53.132;6.574;2024-03-08T06:38:44;24.63;;;13.00;;
57752;SDS011;43583;53.132;6.574;2024-03-08T06:41:11;30.77;;;13.70;;
57752;SDS011;43583;53.132;6.574;2024-03-08T06:43:47;25.55;;;13.30;;
57752;SDS011;43583;53.132;6.574;2024-03-08T06:46:16;26.48;;;13.85;;
57752;SDS011;43583;53.132;6.574;2024-03-08T06:48:42;24.52;;;12.63;;
57752;SDS011;43583;53.132;6.574;2024-03-08T06:51:08;24.02;;;11.55;;
57752;SDS011;43583;53.132;6.574;2024-03-08T06:53:35;24.05;;;12.65;;
57752;SDS011;43583;53.132;6.574;2024-03-08T06:56:02;29.13;;;14.10;;
57752;SDS011;43583;53.132;6.574;2024-03-08T06:58:28;23.02;;;10.38;;
57752;SDS011;43583;53.132;6.574;2024-03-08T07:00:53;23.35;;;11.30;;
57752;SDS011;43583;53.132;6.574;2024-03-08T07:03:23;25.52;;;13.18;;
57752;SDS011;43583;53.132;6.574;2024-03-08T07:05:49;24.92;;;12.93;;
57752;SDS011;43583;53.132;6.574;2024-03-08T07:08:14;26.90;;;12.80;;
57752;SDS011;43583;53.132;6.574;2024-03-08T07:10:41;25.75;;;12.30;;
57752;SDS011;43583;53.132;6.574;2024-03-08T07:13:07;28.50;;;13.05;;
57752;SDS011;43583;53.132;6.574;2024-03-08T07:15:33;22.75;;;11.93;;
57752;SDS011;43583;53.132;6.574;2024-03-08T07:17:58;25.40;;;12.82;;
57752;SDS011;43583;53.132;6.574;2024-03-08T07:20:25;24.77;;;12.70;;
57752;SDS011;43583;53.132;6.574;2024-03-08T07:22:50;24.42;;;12.27;;
57752;SDS011;43583;53.132;6.574;2024-03-08T07:25:16;24.52;;;12.63;;
57752;SDS011;43583;53.132;6.574;2024-03-08T07:27:42;24.55;;;13.88;;
57752;SDS011;43583;53.132;6.574;2024-03-08T07:30:08;26.02;;;12.07;;
57752;SDS011;43583;53.132;6.574;2024-03-08T07:32:35;24.50;;;11.73;;
57752;SDS011;43583;53.132;6.574;2024-03-08T07:35:01;30.08;;;12.68;;
57752;SDS011;43583;53.132;6.574;2024-03-08T07:37:27;28.70;;;13.13;;
57752;SDS011;43583;53.132;6.574;2024-03-08T07:39:52;25.17;;;13.05;;
57752;SDS011;43583;53.132;6.574;2024-03-08T07:42:18;31.65;;;14.15;;
57752;SDS011;43583;53.132;6.574;2024-03-08T07:44:43;24.05;;;11.15;;
57752;SDS011;43583;53.132;6.574;2024-03-08T07:47:11;28.42;;;13.88;;
57752;SDS011;43583;53.132;6.574;2024-03-08T07:49:37;22.10;;;11.63;;
57752;SDS011;43583;53.132;6.574;2024-03-08T07:52:03;25.00;;;13.55;;
57752;SDS011;43583;53.132;6.574;2024-03-08T07:54:29;29.45;;;13.82;;
57752;SDS011;43583;53.132;6.574;2024-03-08T07:56:55;27.58;;;14.43;;
57752;SDS011;43583;53.132;6.574;2024-03-08T07:59:21;23.40;;;12.93;;
57752;SDS011;43583;53.132;6.574;2024-03-08T08:01:47;23.85;;;13.88;;
57752;SDS011;43583;53.132;6.574;2024-03-08T08:04:13;27.73;;;14.27;;
57752;SDS011;43583;53.132;6.574;2024-03-08T08:06:39;21.58;;;13.00;;
57752;SDS011;43583;53.132;6.574;2024-03-08T08:09:08;22.30;;;12.57;;
57752;SDS011;43583;53.132;6.574;2024-03-08T08:11:43;21.65;;;11.90;;
57752;SDS011;43583;53.132;6.574;2024-03-08T08:14:11;22.35;;;13.32;;
57752;SDS011;43583;53.132;6.574;2024-03-08T08:16:37;21.70;;;12.63;;
57752;SDS011;43583;53.132;6.574;2024-03-08T08:19:03;22.52;;;12.40;;
57752;SDS011;43583;53.132;6.574;2024-03-08T08:21:33;22.45;;;12.18;;
57752;SDS011;43583;53.132;6.574;2024-03-08T08:24:01;19.35;;;12.05;;
57752;SDS011;43583;53.132;6.574;2024-03-08T08:26:37;24.80;;;12.88;;
57752;SDS011;43583;53.132;6.574;2024-03-08T08:29:02;23.95;;;13.25;;
57752;SDS011;43583;53.132;6.574;2024-03-08T08:31:28;21.80;;;13.20;;
57752;SDS011;43583;53.132;6.574;2024-03-08T08:33:54;23.00;;;13.70;;
57752;SDS011;43583;53.132;6.574;2024-03-08T08:36:26;20.92;;;13.35;;
57752;SDS011;43583;53.132;6.574;2024-03-08T08:38:55;19.85;;;11.40;;
57752;SDS011;43583;53.132;6.574;2024-03-08T08:41:22;21.30;;;12.63;;
57752;SDS011;43583;53.132;6.574;2024-03-08T08:43:48;22.20;;;12.52;;
57752;SDS011;43583;53.132;6.574;2024-03-08T08:46:17;22.42;;;13.68;;
57752;SDS011;43583;53.132;6.574;2024-03-08T08:48:43;21.77;;;13.38;;
57752;SDS011;43583;53.132;6.574;2024-03-08T08:51:10;19.83;;;13.13;;
57752;SDS011;43583;53.132;6.574;2024-03-08T08:53:40;22.52;;;13.82;;
57752;SDS011;43583;53.132;6.574;2024-03-08T08:56:09;20.05;;;12.25;;
57752;SDS011;43583;53.132;6.574;2024-03-08T08:58:37;19.90;;;12.65;;
57752;SDS011;43583;53.132;6.574;2024-03-08T09:01:09;21.00;;;12.68;;
57752;SDS011;43583;53.132;6.574;2024-03-08T09:03:36;22.25;;;12.23;;
57752;SDS011;43583;53.132;6.574;2024-03-08T09:06:03;27.17;;;13.68;;
57752;SDS011;43583;53.132;6.574;2024-03-08T09:08:30;22.20;;;11.90;;
57752;SDS011;43583;53.132;6.574;2024-03-08T09:10:55;23.40;;;13.18;;
57752;SDS011;43583;53.132;6.574;2024-03-08T09:13:22;21.70;;;12.90;;
57752;SDS011;43583;53.132;6.574;2024-03-08T09:15:48;22.35;;;13.63;;
57752;SDS011;43583;53.132;6.574;2024-03-08T09:18:15;20.40;;;12.48;;
57752;SDS011;43583;53.132;6.574;2024-03-08T09:20:40;23.30;;;12.88;;
57752;SDS011;43583;53.132;6.574;2024-03-08T09:23:06;20.08;;;12.40;;
57752;SDS011;43583;53.132;6.574;2024-03-08T09:25:33;21.17;;;12.38;;
57752;SDS011;43583;53.132;6.574;2024-03-08T09:27:59;19.90;;;12.88;;
57752;SDS011;43583;53.132;6.574;2024-03-08T09:30:25;21.60;;;12.27;;
57752;SDS011;43583;53.132;6.574;2024-03-08T09:32:51;25.33;;;13.82;;
57752;SDS011;43583;53.132;6.574;2024-03-08T09:35:16;23.30;;;13.15;;
57752;SDS011;43583;53.132;6.574;2024-03-08T09:37:42;22.50;;;13.38;;
57752;SDS011;43583;53.132;6.574;2024-03-08T09:40:08;22.20;;;13.30;;
57752;SDS011;43583;53.132;6.574;2024-03-08T09:42:40;25.73;;;14.45;;
57752;SDS011;43583;53.132;6.574;2024-03-08T09:45:10;24.67;;;14.02;;
57752;SDS011;43583;53.132;6.574;2024-03-08T09:47:40;24.15;;;14.20;;
57752;SDS011;43583;53.132;6.574;2024-03-08T09:50:08;22.40;;;12.90;;
57752;SDS011;43583;53.132;6.574;2024-03-08T09:52:37;26.50;;;13.38;;
57752;SDS011;43583;53.132;6.574;2024-03-08T09:55:05;20.77;;;12.75;;
57752;SDS011;43583;53.132;6.574;2024-03-08T09:57:32;22.50;;;13.95;;
57752;SDS011;43583;53.132;6.574;2024-03-08T09:59:59;25.52;;;14.75;;
57752;SDS011;43583;53.132;6.574;2024-03-08T10:02:24;23.42;;;14.13;;
57752;SDS011;43583;53.132;6.574;2024-03-08T10:04:51;26.92;;;14.77;;
57752;SDS011;43583;53.132;6.574;2024-03-08T10:07:18;25.25;;;13.95;;
57752;SDS011;43583;53.132;6.574;2024-03-08T10:09:44;21.27;;;12.55;;
57752;SDS011;43583;53.132;6.574;2024-03-08T10:12:15;21.13;;;13.27;;
57752;SDS011;43583;53.132;6.574;2024-03-08T10:14:42;24.73;;;14.35;;
57752;SDS011;43583;53.132;6.574;2024-03-08T10:17:08;27.25;;;14.23;;
57752;SDS011;43583;53.132;6.574;2024-03-08T10:19:34;26.02;;;14.38;;
57752;SDS011;43583;53.132;6.574;2024-03-08T10:22:00;29.02;;;14.88;;
57752;SDS011;43583;53.132;6.574;2024-03-08T10:24:26;23.15;;;13.27;;
57752;SDS011;43583;53.132;6.574;2024-03-08T10:27:01;23.42;;;14.25;;
57752;SDS011;43583;53.132;6.574;2024-03-08T10:29:30;25.88;;;14.73;;
57752;SDS011;43583;53.132;6.574;2024-03-08T10:31:56;26.98;;;14.88;;
57752;SDS011;43583;53.132;6.574;2024-03-08T10:34:22;24.63;;;14.50;;
57752;SDS011;43583;53.132;6.574;2024-03-08T10:36:50;25.25;;;14.45;;
57752;SDS011;43583;53.132;6.574;2024-03-08T10:39:23;22.65;;;13.70;;
57752;SDS011;43583;53.132;6.574;2024-03-08T10:41:52;24.58;;;14.55;;
57752;SDS011;43583;53.132;6.574;2024-03-08T10:47:03;23.85;;;13.65;;
57752;SDS011;43583;53.132;6.574;2024-03-08T10:49:54;28.73;;;14.40;;
57752;SDS011;43583;53.132;6.574;2024-03-08T10:52:29;22.83;;;13.88;;
57752;SDS011;43583;53.132;6.574;2024-03-08T10:54:54;27.27;;;14.27;;
57752;SDS011;43583;53.132;6.574;2024-03-08T10:57:22;21.75;;;13.23;;
57752;SDS011;43583;53.132;6.574;2024-03-08T10:59:49;22.88;;;13.23;;
57752;SDS011;43583;53.132;6.574;2024-03-08T11:02:18;27.85;;;14.93;;
57752;SDS011;43583;53.132;6.574;2024-03-08T11:04:48;24.65;;;14.25;;
57752;SDS011;43583;53.132;6.574;2024-03-08T11:07:15;23.27;;;14.23;;
57752;SDS011;43583;53.132;6.574;2024-03-08T11:09:45;24.83;;;14.55;;
57752;SDS011;43583;53.132;6.574;2024-03-08T11:12:23;26.75;;;15.95;;
57752;SDS011;43583;53.132;6.574;2024-03-08T11:14:54;24.30;;;13.98;;
57752;SDS011;43583;53.132;6.574;2024-03-08T11:17:25;23.92;;;13.48;;
57752;SDS011;43583;53.132;6.574;2024-03-08T11:20:11;26.48;;;14.75;;
57752;SDS011;43583;53.132;6.574;2024-03-08T11:22:42;27.58;;;15.13;;
57752;SDS011;43583;53.132;6.574;2024-03-08T11:25:35;22.85;;;14.05;;
57752;SDS011;43583;53.132;6.574;2024-03-08T11:28:16;25.08;;;13.73;;
57752;SDS011;43583;53.132;6.574;2024-03-08T11:33:26;27.13;;;14.23;;
57752;SDS011;43583;53.132;6.574;2024-03-08T11:41:17;23.65;;;14.43;;
57752;SDS011;43583;53.132;6.574;2024-03-08T11:44:02;23.95;;;13.18;;
57752;SDS011;43583;53.132;6.574;2024-03-08T11:46:33;25.65;;;15.52;;
57752;SDS011;43583;53.132;6.574;2024-03-08T11:48:59;29.73;;;17.05;;
57752;SDS011;43583;53.132;6.574;2024-03-08T11:51:26;26.48;;;14.95;;
57752;SDS011;43583;53.132;6.574;2024-03-08T11:53:52;25.55;;;16.60;;
57752;SDS011;43583;53.132;6.574;2024-03-08T11:56:18;27.77;;;15.18;;
57752;SDS011;43583;53.132;6.574;2024-03-08T11:58:53;22.98;;;14.93;;
57752;SDS011;43583;53.132;6.574;2024-03-08T12:01:22;27.88;;;14.32;;
57752;SDS011;43583;53.132;6.574;2024-03-08T12:03:57;27.70;;;15.27;;
57752;SDS011;43583;53.132;6.574;2024-03-08T12:06:25;25.48;;;15.18;;
57752;SDS011;43583;53.132;6.574;2024-03-08T12:08:52;28.48;;;17.38;;
57752;SDS011;43583;53.132;6.574;2024-03-08T12:11:18;25.92;;;14.95;;
57752;SDS011;43583;53.132;6.574;2024-03-08T12:13:48;26.30;;;15.38;;
57752;SDS011;43583;53.132;6.574;2024-03-08T12:16:17;27.30;;;15.65;;
57752;SDS011;43583;53.132;6.574;2024-03-08T12:18:43;27.50;;;16.23;;
57752;SDS011;43583;53.132;6.574;2024-03-08T12:21:10;28.67;;;15.35;;
57752;SDS011;43583;53.132;6.574;2024-03-08T12:23:37;25.95;;;14.70;;
57752;SDS011;43583;53.132;6.574;2024-03-08T12:26:16;29.88;;;15.70;;
57752;SDS011;43583;53.132;6.574;2024-03-08T12:28:43;27.70;;;14.48;;
57752;SDS011;43583;53.132;6.574;2024-03-08T12:31:11;25.25;;;13.80;;
57752;SDS011;43583;53.132;6.574;2024-03-08T12:33:47;26.23;;;15.07;;
57752;SDS011;43583;53.132;6.574;2024-03-08T12:36:16;23.30;;;14.50;;
57752;SDS011;43583;53.132;6.574;2024-03-08T12:38:43;24.67;;;14.85;;
57752;SDS011;43583;53.132;6.574;2024-03-08T12:41:13;23.45;;;13.50;;
57752;SDS011;43583;53.132;6.574;2024-03-08T12:43:39;20.48;;;12.88;;
57752;SDS011;43583;53.132;6.574;2024-03-08T12:46:05;23.10;;;14.07;;
57752;SDS011;43583;53.132;6.574;2024-03-08T12:48:34;21.98;;;14.02;;
57752;SDS011;43583;53.132;6.574;2024-03-08T12:51:06;26.43;;;14.50;;
57752;SDS011;43583;53.132;6.574;2024-03-08T12:53:32;25.27;;;13.75;;
57752;SDS011;43583;53.132;6.574;2024-03-08T12:55:58;24.08;;;13.95;;
57752;SDS011;43583;53.132;6.574;2024-03-08T12:58:24;21.00;;;12.75;;
57752;SDS011;43583;53.132;6.574;2024-03-08T13:00:51;20.65;;;12.80;;
57752;SDS011;43583;53.132;6.574;2024-03-08T13:03:16;20.90;;;13.55;;
57752;SDS011;43583;53.132;6.574;2024-03-08T13:05:42;21.48;;;13.05;;
57752;SDS011;43583;53.132;6.574;2024-03-08T13:08:08;22.88;;;13.45;;
57752;SDS011;43583;53.132;6.574;2024-03-08T13:10:41;19.27;;;13.05;;
57752;SDS011;43583;53.132;6.574;2024-03-08T13:13:08;23.90;;;13.73;;
57752;SDS011;43583;53.132;6.574;2024-03-08T13:15:35;20.90;;;12.95;;
57752;SDS011;43583;53.132;6.574;2024-03-08T13:18:01;27.67;;;14.88;;
57752;SDS011;43583;53.132;6.574;2024-03-08T13:20:27;23.27;;;13.32;;
57752;SDS011;43583;53.132;6.574;2024-03-08T13:22:54;21.20;;;12.27;;
57752;SDS011;43583;53.132;6.574;2024-03-08T13:25:21;21.63;;;12.93;;
57752;SDS011;43583;53.132;6.574;2024-03-08T13:27:47;23.77;;;13.00;;
57752;SDS011;43583;53.132;6.574;2024-03-08T13:30:14;22.65;;;13.50;;
57752;SDS011;43583;53.132;6.574;2024-03-08T13:32:43;23.92;;;13.20;;
57752;SDS011;43583;53.132;6.574;2024-03-08T13:35:10;18.90;;;12.70;;
57752;SDS011;43583;53.132;6.574;2024-03-08T13:37:39;19.63;;;12.38;;
57752;SDS011;43583;53.132;6.574;2024-03-08T13:40:06;17.85;;;12.02;;
57752;SDS011;43583;53.132;6.574;2024-03-08T13:42:36;20.33;;;12.15;;
57752;SDS011;43583;53.132;6.574;2024-03-08T13:45:04;18.58;;;11.02;;
57752;SDS011;43583;53.132;6.574;2024-03-08T13:47:33;21.02;;;12.02;;
57752;SDS011;43583;53.132;6.574;2024-03-08T13:49:59;18.13;;;11.02;;
57752;SDS011;43583;53.132;6.574;2024-03-08T13:52:26;18.10;;;10.85;;
57752;SDS011;43583;53.132;6.574;2024-03-08T13:54:54;23.15;;;11.05;;
57752;SDS011;43583;53.132;6.574;2024-03-08T13:57:20;19.90;;;12.43;;
57752;SDS011;43583;53.132;6.574;2024-03-08T13:59:47;19.88;;;10.95;;
57752;SDS011;43583;53.132;6.574;2024-03-08T14:02:16;19.60;;;11.85;;
57752;SDS011;43583;53.132;6.574;2024-03-08T14:04:42;17.45;;;11.48;;
57752;SDS011;43583;53.132;6.574;2024-03-08T14:07:08;18.90;;;11.85;;
57752;SDS011;43583;53.132;6.574;2024-03-08T14:09:34;17.85;;;11.65;;
57752;SDS011;43583;53.132;6.574;2024-03-08T14:12:05;24.30;;;11.70;;
57752;SDS011;43583;53.132;6.574;2024-03-08T14:14:32;19.48;;;11.05;;
57752;SDS011;43583;53.132;6.574;2024-03-08T14:17:00;19.27;;;11.27;;
57752;SDS011;43583;53.132;6.574;2024-03-08T14:19:27;15.80;;;10.93;;
57752;SDS011;43583;53.132;6.574;2024-03-08T14:21:53;16.55;;;10.43;;
57752;SDS011;43583;53.132;6.574;2024-03-08T14:24:19;21.63;;;12.15;;
57752;SDS011;43583;53.132;6.574;2024-03-08T14:26:45;18.38;;;10.75;;
57752;SDS011;43583;53.132;6.574;2024-03-08T14:29:14;16.35;;;10.68;;
57752;SDS011;43583;53.132;6.574;2024-03-08T14:31:40;18.08;;;11.85;;
57752;SDS011;43583;53.132;6.574;2024-03-08T14:34:08;19.65;;;11.18;;
57752;SDS011;43583;53.132;6.574;2024-03-08T14:36:34;17.38;;;11.00;;